sensor_id;sensor_type;location;lat;lon;timestamp;P1;durP1;ratioP1;P2;durP2;ratioP2
30519;SDS011;17300;50.374;8.006;2023-08-30T00:01:10;4.87;;;2.80;;
30519;SDS011;17300;50.374;8.006;2023-08-30T00:03:36;2.30;;;2.10;;
30519;SDS011;17300;50.374;8.006;2023-08-30T00:06:03;2.20;;;2.00;;
30519;SDS011;17300;50.374;8.006;2023-08-30T00:08:30;3.13;;;1.90;;
30519;SDS011;17300;50.374;8.006;2023-08-30T00:10:57;2.17;;;1.80;;
30519;SDS011;17300;50.374;8.006;2023-08-30T00:13:24;2.27;;;1.80;;
30519;SDS011;17300;50.374;8.006;2023-08-30T00:15:52;2.13;;;1.33;;
30519;SDS011;17300;50.374;8.006;2023-08-30T00:18:19;1.40;;;1.30;;
30519;SDS011;17300;50.374;8.006;2023-08-30T00:20:46;1.40;;;1.30;;
30519;SDS011;17300;50.374;8.006;2023-08-30T00:23:12;1.47;;;1.37;;
30519;SDS011;17300;50.374;8.006;2023-08-30T00:25:39;1.50;;;1.40;;
30519;SDS011;17300;50.374;8.006;2023-08-30T00:28:06;1.43;;;1.30;;
30519;SDS011;17300;50.374;8.006;2023-08-30T00:30:33;1.40;;;1.30;;
30519;SDS011;17300;50.374;8.006;2023-08-30T00:33:01;1.30;;;1.20;;
30519;SDS011;17300;50.374;8.006;2023-08-30T00:35:28;1.40;;;1.27;;
30519;SDS011;17300;50.374;8.006;2023-08-30T00:37:55;1.20;;;1.20;;
30519;SDS011;17300;50.374;8.006;2023-08-30T00:40:22;1.20;;;1.13;;
30519;SDS011;17300;50.374;8.006;2023-08-30T00:42:50;1.60;;;1.50;;
30519;SDS011;17300;50.374;8.006;2023-08-30T00:45:17;1.50;;;1.40;;
30519;SDS011;17300;50.374;8.006;2023-08-30T00:47:44;1.57;;;1.47;;
30519;SDS011;17300;50.374;8.006;2023-08-30T00:50:13;1.67;;;1.57;;
30519;SDS011;17300;50.374;8.006;2023-08-30T00:52:41;1.70;;;1.60;;
30519;SDS011;17300;50.374;8.006;2023-08-30T00:55:08;1.90;;;1.67;;
30519;SDS011;17300;50.374;8.006;2023-08-30T00:57:36;2.27;;;1.40;;
30519;SDS011;17300;50.374;8.006;2023-08-30T01:00:03;1.40;;;1.30;;
30519;SDS011;17300;50.374;8.006;2023-08-30T01:02:32;2.03;;;1.30;;
30519;SDS011;17300;50.374;8.006;2023-08-30T01:04:59;1.43;;;1.33;;
30519;SDS011;17300;50.374;8.006;2023-08-30T01:07:27;1.57;;;1.47;;
30519;SDS011;17300;50.374;8.006;2023-08-30T01:09:53;1.50;;;1.40;;
30519;SDS011;17300;50.374;8.006;2023-08-30T01:12:22;1.50;;;1.37;;
30519;SDS011;17300;50.374;8.006;2023-08-30T01:14:52;1.73;;;1.63;;
30519;SDS011;17300;50.374;8.006;2023-08-30T01:17:24;1.60;;;1.40;;
30519;SDS011;17300;50.374;8.006;2023-08-30T01:19:53;1.67;;;1.57;;
30519;SDS011;17300;50.374;8.006;2023-08-30T01:22:29;1.47;;;1.33;;
30519;SDS011;17300;50.374;8.006;2023-08-30T01:25:08;1.70;;;1.30;;
30519;SDS011;17300;50.374;8.006;2023-08-30T01:27:42;1.43;;;1.33;;
30519;SDS011;17300;50.374;8.006;2023-08-30T01:30:09;1.40;;;1.30;;
30519;SDS011;17300;50.374;8.006;2023-08-30T01:32:37;3.23;;;1.50;;
30519;SDS011;17300;50.374;8.006;2023-08-30T01:35:06;1.57;;;1.47;;
30519;SDS011;17300;50.374;8.006;2023-08-30T01:37:34;1.67;;;1.47;;
30519;SDS011;17300;50.374;8.006;2023-08-30T01:40:02;2.13;;;1.33;;
30519;SDS011;17300;50.374;8.006;2023-08-30T01:42:30;1.57;;;1.47;;
30519;SDS011;17300;50.374;8.006;2023-08-30T01:45:00;1.50;;;1.40;;
30519;SDS011;17300;50.374;8.006;2023-08-30T01:47:29;1.30;;;1.30;;
30519;SDS011;17300;50.374;8.006;2023-08-30T01:49:56;2.23;;;1.67;;
30519;SDS011;17300;50.374;8.006;2023-08-30T01:52:23;1.87;;;1.67;;
30519;SDS011;17300;50.374;8.006;2023-08-30T01:54:51;2.53;;;1.57;;
30519;SDS011;17300;50.374;8.006;2023-08-30T01:57:18;1.60;;;1.50;;
30519;SDS011;17300;50.374;8.006;2023-08-30T01:59:45;1.60;;;1.50;;
30519;SDS011;17300;50.374;8.006;2023-08-30T02:02:13;1.70;;;1.60;;
30519;SDS011;17300;50.374;8.006;2023-08-30T02:04:39;1.70;;;1.60;;
30519;SDS011;17300;50.374;8.006;2023-08-30T02:07:07;1.80;;;1.70;;
30519;SDS011;17300;50.374;8.006;2023-08-30T02:09:39;2.77;;;1.80;;
30519;SDS011;17300;50.374;8.006;2023-08-30T02:12:10;1.50;;;1.40;;
30519;SDS011;17300;50.374;8.006;2023-08-30T02:14:39;1.40;;;1.30;;
30519;SDS011;17300;50.374;8.006;2023-08-30T02:17:08;1.63;;;1.53;;
30519;SDS011;17300;50.374;8.006;2023-08-30T02:19:36;1.63;;;1.50;;
30519;SDS011;17300;50.374;8.006;2023-08-30T02:22:03;1.60;;;1.50;;
30519;SDS011;17300;50.374;8.006;2023-08-30T02:24:30;2.43;;;1.77;;
30519;SDS011;17300;50.374;8.006;2023-08-30T02:26:57;1.67;;;1.57;;
30519;SDS011;17300;50.374;8.006;2023-08-30T02:29:23;1.53;;;1.43;;
30519;SDS011;17300;50.374;8.006;2023-08-30T02:31:50;1.63;;;1.53;;
30519;SDS011;17300;50.374;8.006;2023-08-30T02:34:16;2.20;;;1.90;;
30519;SDS011;17300;50.374;8.006;2023-08-30T02:36:44;1.47;;;1.37;;
30519;SDS011;17300;50.374;8.006;2023-08-30T02:39:11;1.50;;;1.40;;
30519;SDS011;17300;50.374;8.006;2023-08-30T02:41:40;1.53;;;1.40;;
30519;SDS011;17300;50.374;8.006;2023-08-30T02:44:07;1.40;;;1.30;;
30519;SDS011;17300;50.374;8.006;2023-08-30T02:46:34;1.63;;;1.53;;
30519;SDS011;17300;50.374;8.006;2023-08-30T02:49:02;1.90;;;1.80;;
30519;SDS011;17300;50.374;8.006;2023-08-30T02:51:29;4.87;;;1.70;;
30519;SDS011;17300;50.374;8.006;2023-08-30T02:53:57;1.80;;;1.70;;
30519;SDS011;17300;50.374;8.006;2023-08-30T02:56:23;1.93;;;1.83;;
30519;SDS011;17300;50.374;8.006;2023-08-30T02:58:51;2.70;;;1.87;;
30519;SDS011;17300;50.374;8.006;2023-08-30T03:01:17;2.90;;;2.10;;
30519;SDS011;17300;50.374;8.006;2023-08-30T03:03:45;2.10;;;1.67;;
30519;SDS011;17300;50.374;8.006;2023-08-30T03:06:11;1.90;;;1.70;;
30519;SDS011;17300;50.374;8.006;2023-08-30T03:08:39;2.10;;;1.67;;
30519;SDS011;17300;50.374;8.006;2023-08-30T03:11:10;1.63;;;1.53;;
30519;SDS011;17300;50.374;8.006;2023-08-30T03:13:37;1.33;;;1.23;;
30519;SDS011;17300;50.374;8.006;2023-08-30T03:16:09;1.60;;;1.50;;
30519;SDS011;17300;50.374;8.006;2023-08-30T03:18:37;1.80;;;1.70;;
30519;SDS011;17300;50.374;8.006;2023-08-30T03:21:04;2.33;;;1.80;;
30519;SDS011;17300;50.374;8.006;2023-08-30T03:23:30;2.03;;;1.83;;
30519;SDS011;17300;50.374;8.006;2023-08-30T03:25:57;2.03;;;1.83;;
30519;SDS011;17300;50.374;8.006;2023-08-30T03:28:25;1.77;;;1.67;;
30519;SDS011;17300;50.374;8.006;2023-08-30T03:30:52;2.57;;;1.87;;
30519;SDS011;17300;50.374;8.006;2023-08-30T03:33:19;2.40;;;1.57;;
30519;SDS011;17300;50.374;8.006;2023-08-30T03:35:46;2.03;;;1.60;;
30519;SDS011;17300;50.374;8.006;2023-08-30T03:38:12;2.50;;;1.67;;
30519;SDS011;17300;50.374;8.006;2023-08-30T03:40:39;1.77;;;1.57;;
30519;SDS011;17300;50.374;8.006;2023-08-30T03:43:06;1.73;;;1.63;;
30519;SDS011;17300;50.374;8.006;2023-08-30T03:45:35;1.70;;;1.60;;
30519;SDS011;17300;50.374;8.006;2023-08-30T03:48:02;2.60;;;1.80;;
30519;SDS011;17300;50.374;8.006;2023-08-30T03:50:29;2.27;;;1.77;;
30519;SDS011;17300;50.374;8.006;2023-08-30T03:52:56;1.67;;;1.57;;
30519;SDS011;17300;50.374;8.006;2023-08-30T03:55:23;1.63;;;1.53;;
30519;SDS011;17300;50.374;8.006;2023-08-30T03:57:49;2.03;;;1.73;;
30519;SDS011;17300;50.374;8.006;2023-08-30T04:00:16;2.63;;;1.90;;
30519;SDS011;17300;50.374;8.006;2023-08-30T04:02:44;2.37;;;2.07;;
30519;SDS011;17300;50.374;8.006;2023-08-30T04:05:11;1.80;;;1.70;;
30519;SDS011;17300;50.374;8.006;2023-08-30T04:07:37;4.90;;;1.80;;
30519;SDS011;17300;50.374;8.006;2023-08-30T04:10:04;2.47;;;1.87;;
30519;SDS011;17300;50.374;8.006;2023-08-30T04:12:32;1.70;;;1.60;;
30519;SDS011;17300;50.374;8.006;2023-08-30T04:14:59;2.27;;;1.87;;
30519;SDS011;17300;50.374;8.006;2023-08-30T04:17:26;1.87;;;1.77;;
30519;SDS011;17300;50.374;8.006;2023-08-30T04:19:54;2.77;;;1.90;;
30519;SDS011;17300;50.374;8.006;2023-08-30T04:22:21;2.20;;;2.00;;
30519;SDS011;17300;50.374;8.006;2023-08-30T04:24:48;2.03;;;1.87;;
30519;SDS011;17300;50.374;8.006;2023-08-30T04:27:15;1.90;;;1.80;;
30519;SDS011;17300;50.374;8.006;2023-08-30T04:29:42;1.60;;;1.50;;
30519;SDS011;17300;50.374;8.006;2023-08-30T04:32:10;1.73;;;1.60;;
30519;SDS011;17300;50.374;8.006;2023-08-30T04:34:36;1.63;;;1.53;;
30519;SDS011;17300;50.374;8.006;2023-08-30T04:37:05;1.67;;;1.57;;
30519;SDS011;17300;50.374;8.006;2023-08-30T04:39:31;2.10;;;2.00;;
30519;SDS011;17300;50.374;8.006;2023-08-30T04:41:58;2.37;;;2.17;;
30519;SDS011;17300;50.374;8.006;2023-08-30T04:44:25;2.70;;;2.40;;
30519;SDS011;17300;50.374;8.006;2023-08-30T04:46:52;2.60;;;2.40;;
30519;SDS011;17300;50.374;8.006;2023-08-30T04:49:19;2.50;;;2.30;;
30519;SDS011;17300;50.374;8.006;2023-08-30T04:51:46;2.73;;;2.53;;
30519;SDS011;17300;50.374;8.006;2023-08-30T04:54:14;2.80;;;2.60;;
30519;SDS011;17300;50.374;8.006;2023-08-30T04:56:41;3.40;;;2.90;;
30519;SDS011;17300;50.374;8.006;2023-08-30T04:59:08;3.23;;;2.90;;
30519;SDS011;17300;50.374;8.006;2023-08-30T05:01:35;2.77;;;2.57;;
30519;SDS011;17300;50.374;8.006;2023-08-30T05:04:03;2.77;;;2.57;;
30519;SDS011;17300;50.374;8.006;2023-08-30T05:06:30;2.67;;;2.47;;
30519;SDS011;17300;50.374;8.006;2023-08-30T05:08:57;2.40;;;2.20;;
30519;SDS011;17300;50.374;8.006;2023-08-30T05:11:25;2.53;;;2.33;;
30519;SDS011;17300;50.374;8.006;2023-08-30T05:13:52;3.07;;;2.87;;
30519;SDS011;17300;50.374;8.006;2023-08-30T05:16:18;2.73;;;2.53;;
30519;SDS011;17300;50.374;8.006;2023-08-30T05:18:45;3.33;;;3.03;;
30519;SDS011;17300;50.374;8.006;2023-08-30T05:21:12;2.97;;;2.77;;
30519;SDS011;17300;50.374;8.006;2023-08-30T05:23:39;5.30;;;4.50;;
30519;SDS011;17300;50.374;8.006;2023-08-30T05:26:07;3.30;;;3.00;;
30519;SDS011;17300;50.374;8.006;2023-08-30T05:28:35;3.37;;;3.07;;
30519;SDS011;17300;50.374;8.006;2023-08-30T05:31:01;4.00;;;2.93;;
30519;SDS011;17300;50.374;8.006;2023-08-30T05:33:28;3.00;;;2.70;;
30519;SDS011;17300;50.374;8.006;2023-08-30T05:35:55;4.13;;;2.83;;
30519;SDS011;17300;50.374;8.006;2023-08-30T05:38:21;3.40;;;2.80;;
30519;SDS011;17300;50.374;8.006;2023-08-30T05:40:48;3.23;;;2.30;;
30519;SDS011;17300;50.374;8.006;2023-08-30T05:43:15;2.50;;;2.30;;
30519;SDS011;17300;50.374;8.006;2023-08-30T05:45:43;2.50;;;2.00;;
30519;SDS011;17300;50.374;8.006;2023-08-30T05:48:10;2.17;;;2.07;;
30519;SDS011;17300;50.374;8.006;2023-08-30T05:50:37;2.23;;;2.13;;
30519;SDS011;17300;50.374;8.006;2023-08-30T05:53:05;2.60;;;2.40;;
30519;SDS011;17300;50.374;8.006;2023-08-30T05:55:32;2.47;;;2.30;;
30519;SDS011;17300;50.374;8.006;2023-08-30T05:57:59;2.57;;;2.40;;
30519;SDS011;17300;50.374;8.006;2023-08-30T06:00:25;2.10;;;2.00;;
30519;SDS011;17300;50.374;8.006;2023-08-30T06:02:53;2.40;;;2.20;;
30519;SDS011;17300;50.374;8.006;2023-08-30T06:05:20;2.33;;;2.23;;
30519;SDS011;17300;50.374;8.006;2023-08-30T06:07:47;2.43;;;2.27;;
30519;SDS011;17300;50.374;8.006;2023-08-30T06:10:13;2.37;;;2.20;;
30519;SDS011;17300;50.374;8.006;2023-08-30T06:12:40;2.70;;;2.40;;
30519;SDS011;17300;50.374;8.006;2023-08-30T06:15:07;2.50;;;2.30;;
30519;SDS011;17300;50.374;8.006;2023-08-30T06:17:34;2.43;;;2.33;;
30519;SDS011;17300;50.374;8.006;2023-08-30T06:20:02;3.00;;;2.70;;
30519;SDS011;17300;50.374;8.006;2023-08-30T06:22:29;2.50;;;2.30;;
30519;SDS011;17300;50.374;8.006;2023-08-30T06:24:56;2.77;;;2.57;;
30519;SDS011;17300;50.374;8.006;2023-08-30T06:27:23;2.90;;;2.70;;
30519;SDS011;17300;50.374;8.006;2023-08-30T06:29:50;2.87;;;2.67;;
30519;SDS011;17300;50.374;8.006;2023-08-30T06:32:17;2.50;;;2.40;;
30519;SDS011;17300;50.374;8.006;2023-08-30T06:34:45;3.23;;;3.03;;
30519;SDS011;17300;50.374;8.006;2023-08-30T06:37:13;2.57;;;2.37;;
30519;SDS011;17300;50.374;8.006;2023-08-30T06:39:39;2.90;;;2.60;;
30519;SDS011;17300;50.374;8.006;2023-08-30T06:42:06;2.73;;;2.53;;
30519;SDS011;17300;50.374;8.006;2023-08-30T06:44:33;2.90;;;2.70;;
30519;SDS011;17300;50.374;8.006;2023-08-30T06:46:59;2.67;;;2.47;;
30519;SDS011;17300;50.374;8.006;2023-08-30T06:49:28;2.87;;;2.67;;
30519;SDS011;17300;50.374;8.006;2023-08-30T06:51:56;2.97;;;2.77;;
30519;SDS011;17300;50.374;8.006;2023-08-30T06:54:24;3.07;;;2.87;;
30519;SDS011;17300;50.374;8.006;2023-08-30T06:56:57;3.47;;;2.90;;
30519;SDS011;17300;50.374;8.006;2023-08-30T06:59:24;2.90;;;2.70;;
30519;SDS011;17300;50.374;8.006;2023-08-30T07:01:51;3.33;;;3.13;;
30519;SDS011;17300;50.374;8.006;2023-08-30T07:04:18;3.63;;;3.17;;
30519;SDS011;17300;50.374;8.006;2023-08-30T07:06:45;2.83;;;2.63;;
30519;SDS011;17300;50.374;8.006;2023-08-30T07:09:11;3.00;;;2.70;;
30519;SDS011;17300;50.374;8.006;2023-08-30T07:11:41;3.10;;;2.90;;
30519;SDS011;17300;50.374;8.006;2023-08-30T07:14:10;3.07;;;2.77;;
30519;SDS011;17300;50.374;8.006;2023-08-30T07:16:37;3.33;;;3.10;;
30519;SDS011;17300;50.374;8.006;2023-08-30T07:19:03;3.40;;;3.13;;
30519;SDS011;17300;50.374;8.006;2023-08-30T07:21:30;3.10;;;2.90;;
30519;SDS011;17300;50.374;8.006;2023-08-30T07:23:58;3.20;;;3.00;;
30519;SDS011;17300;50.374;8.006;2023-08-30T07:26:24;3.10;;;2.90;;
30519;SDS011;17300;50.374;8.006;2023-08-30T07:28:52;3.47;;;3.27;;
30519;SDS011;17300;50.374;8.006;2023-08-30T07:31:19;3.50;;;3.30;;
30519;SDS011;17300;50.374;8.006;2023-08-30T07:33:46;3.93;;;3.33;;
30519;SDS011;17300;50.374;8.006;2023-08-30T07:36:13;3.87;;;3.57;;
30519;SDS011;17300;50.374;8.006;2023-08-30T07:38:40;3.50;;;3.30;;
30519;SDS011;17300;50.374;8.006;2023-08-30T07:41:06;3.50;;;3.27;;
30519;SDS011;17300;50.374;8.006;2023-08-30T07:43:33;3.27;;;3.07;;
30519;SDS011;17300;50.374;8.006;2023-08-30T07:46:01;3.30;;;3.10;;
30519;SDS011;17300;50.374;8.006;2023-08-30T07:48:28;3.37;;;3.17;;
30519;SDS011;17300;50.374;8.006;2023-08-30T07:50:54;3.80;;;3.43;;
30519;SDS011;17300;50.374;8.006;2023-08-30T07:53:21;3.50;;;3.30;;
30519;SDS011;17300;50.374;8.006;2023-08-30T07:55:48;3.17;;;2.97;;
30519;SDS011;17300;50.374;8.006;2023-08-30T07:58:15;3.30;;;3.10;;
30519;SDS011;17300;50.374;8.006;2023-08-30T08:00:42;3.53;;;3.33;;
30519;SDS011;17300;50.374;8.006;2023-08-30T08:03:10;3.80;;;3.50;;
30519;SDS011;17300;50.374;8.006;2023-08-30T08:05:37;3.77;;;3.50;;
30519;SDS011;17300;50.374;8.006;2023-08-30T08:08:04;3.80;;;3.50;;
30519;SDS011;17300;50.374;8.006;2023-08-30T08:10:31;3.63;;;3.33;;
30519;SDS011;17300;50.374;8.006;2023-08-30T08:12:58;3.60;;;3.40;;
30519;SDS011;17300;50.374;8.006;2023-08-30T08:15:25;3.00;;;2.80;;
30519;SDS011;17300;50.374;8.006;2023-08-30T08:17:55;3.13;;;2.92;;
30519;SDS011;17300;50.374;8.006;2023-08-30T08:20:23;3.33;;;3.13;;
30519;SDS011;17300;50.374;8.006;2023-08-30T08:22:50;3.08;;;2.88;;
30519;SDS011;17300;50.374;8.006;2023-08-30T08:25:17;2.60;;;2.50;;
30519;SDS011;17300;50.374;8.006;2023-08-30T08:27:43;2.55;;;2.35;;
30519;SDS011;17300;50.374;8.006;2023-08-30T08:30:10;2.85;;;2.65;;
30519;SDS011;17300;50.374;8.006;2023-08-30T08:32:37;2.50;;;2.40;;
30519;SDS011;17300;50.374;8.006;2023-08-30T08:35:04;2.70;;;2.50;;
30519;SDS011;17300;50.374;8.006;2023-08-30T08:37:33;2.40;;;2.30;;
30519;SDS011;17300;50.374;8.006;2023-08-30T08:40:00;2.33;;;2.22;;
30519;SDS011;17300;50.374;8.006;2023-08-30T08:42:33;2.28;;;2.17;;
30519;SDS011;17300;50.374;8.006;2023-08-30T08:45:01;2.38;;;2.28;;
30519;SDS011;17300;50.374;8.006;2023-08-30T08:47:29;2.13;;;2.03;;
30519;SDS011;17300;50.374;8.006;2023-08-30T08:49:56;2.65;;;2.17;;
30519;SDS011;17300;50.374;8.006;2023-08-30T08:52:24;2.15;;;2.05;;
30519;SDS011;17300;50.374;8.006;2023-08-30T08:54:52;2.03;;;1.92;;
30519;SDS011;17300;50.374;8.006;2023-08-30T08:57:20;2.00;;;1.90;;
30519;SDS011;17300;50.374;8.006;2023-08-30T08:59:47;1.95;;;1.85;;
30519;SDS011;17300;50.374;8.006;2023-08-30T09:02:15;1.90;;;1.80;;
30519;SDS011;17300;50.374;8.006;2023-08-30T09:04:42;1.75;;;1.65;;
30519;SDS011;17300;50.374;8.006;2023-08-30T09:07:09;2.05;;;1.83;;
30519;SDS011;17300;50.374;8.006;2023-08-30T09:09:36;2.25;;;1.60;;
30519;SDS011;17300;50.374;8.006;2023-08-30T09:12:04;1.80;;;1.70;;
30519;SDS011;17300;50.374;8.006;2023-08-30T09:14:31;2.20;;;1.98;;
30519;SDS011;17300;50.374;8.006;2023-08-30T09:17:00;1.70;;;1.60;;
30519;SDS011;17300;50.374;8.006;2023-08-30T09:19:28;1.88;;;1.77;;
30519;SDS011;17300;50.374;8.006;2023-08-30T09:21:56;1.80;;;1.70;;
30519;SDS011;17300;50.374;8.006;2023-08-30T09:24:24;1.80;;;1.70;;
30519;SDS011;17300;50.374;8.006;2023-08-30T09:26:51;2.05;;;1.95;;
30519;SDS011;17300;50.374;8.006;2023-08-30T09:29:21;1.80;;;1.70;;
30519;SDS011;17300;50.374;8.006;2023-08-30T09:31:50;1.90;;;1.80;;
30519;SDS011;17300;50.374;8.006;2023-08-30T09:34:21;1.85;;;1.73;;
30519;SDS011;17300;50.374;8.006;2023-08-30T09:36:48;1.88;;;1.77;;
30519;SDS011;17300;50.374;8.006;2023-08-30T09:39:15;1.70;;;1.60;;
30519;SDS011;17300;50.374;8.006;2023-08-30T09:41:42;1.90;;;1.80;;
30519;SDS011;17300;50.374;8.006;2023-08-30T09:44:09;1.83;;;1.73;;
30519;SDS011;17300;50.374;8.006;2023-08-30T09:46:41;1.58;;;1.48;;
30519;SDS011;17300;50.374;8.006;2023-08-30T09:49:08;2.45;;;1.40;;
30519;SDS011;17300;50.374;8.006;2023-08-30T09:51:35;1.50;;;1.40;;
30519;SDS011;17300;50.374;8.006;2023-08-30T09:54:06;1.60;;;1.50;;
30519;SDS011;17300;50.374;8.006;2023-08-30T09:56:39;1.30;;;1.20;;
30519;SDS011;17300;50.374;8.006;2023-08-30T09:59:07;1.40;;;1.30;;
30519;SDS011;17300;50.374;8.006;2023-08-30T10:01:36;2.40;;;1.40;;
30519;SDS011;17300;50.374;8.006;2023-08-30T10:04:04;1.10;;;1.10;;
30519;SDS011;17300;50.374;8.006;2023-08-30T10:06:33;1.20;;;1.10;;
30519;SDS011;17300;50.374;8.006;2023-08-30T10:09:01;1.30;;;1.20;;
30519;SDS011;17300;50.374;8.006;2023-08-30T10:11:29;1.52;;;1.42;;
30519;SDS011;17300;50.374;8.006;2023-08-30T10:13:58;1.23;;;1.13;;
30519;SDS011;17300;50.374;8.006;2023-08-30T10:16:26;1.27;;;1.17;;
30519;SDS011;17300;50.374;8.006;2023-08-30T10:18:58;1.38;;;1.27;;
30519;SDS011;17300;50.374;8.006;2023-08-30T10:21:30;1.45;;;1.20;;
30519;SDS011;17300;50.374;8.006;2023-08-30T10:23:57;1.30;;;1.20;;
30519;SDS011;17300;50.374;8.006;2023-08-30T10:26:26;2.03;;;1.42;;
30519;SDS011;17300;50.374;8.006;2023-08-30T10:28:55;1.52;;;1.25;;
30519;SDS011;17300;50.374;8.006;2023-08-30T10:31:22;1.77;;;1.67;;
30519;SDS011;17300;50.374;8.006;2023-08-30T10:33:49;1.58;;;1.48;;
30519;SDS011;17300;50.374;8.006;2023-08-30T10:36:21;1.90;;;1.55;;
30519;SDS011;17300;50.374;8.006;2023-08-30T10:38:51;1.52;;;1.42;;
30519;SDS011;17300;50.374;8.006;2023-08-30T10:41:21;3.10;;;2.90;;
30519;SDS011;17300;50.374;8.006;2023-08-30T10:43:50;1.90;;;1.80;;
30519;SDS011;17300;50.374;8.006;2023-08-30T10:46:28;1.52;;;1.27;;
30519;SDS011;17300;50.374;8.006;2023-08-30T10:48:55;1.50;;;1.40;;
30519;SDS011;17300;50.374;8.006;2023-08-30T10:51:34;1.50;;;1.40;;
30519;SDS011;17300;50.374;8.006;2023-08-30T10:54:09;1.80;;;1.70;;
30519;SDS011;17300;50.374;8.006;2023-08-30T10:56:44;1.60;;;1.50;;
30519;SDS011;17300;50.374;8.006;2023-08-30T10:59:15;1.75;;;1.65;;
30519;SDS011;17300;50.374;8.006;2023-08-30T11:01:43;1.60;;;1.50;;
30519;SDS011;17300;50.374;8.006;2023-08-30T11:04:10;1.88;;;1.67;;
30519;SDS011;17300;50.374;8.006;2023-08-30T11:06:38;1.52;;;1.42;;
30519;SDS011;17300;50.374;8.006;2023-08-30T11:09:06;1.58;;;1.48;;
30519;SDS011;17300;50.374;8.006;2023-08-30T11:11:34;1.85;;;1.45;;
30519;SDS011;17300;50.374;8.006;2023-08-30T11:14:06;1.45;;;1.35;;
30519;SDS011;17300;50.374;8.006;2023-08-30T11:16:33;1.98;;;1.48;;
30519;SDS011;17300;50.374;8.006;2023-08-30T11:19:00;1.17;;;1.17;;
30519;SDS011;17300;50.374;8.006;2023-08-30T11:21:28;1.60;;;1.50;;
30519;SDS011;17300;50.374;8.006;2023-08-30T11:23:55;1.67;;;1.50;;
30519;SDS011;17300;50.374;8.006;2023-08-30T11:26:23;1.58;;;1.48;;
30519;SDS011;17300;50.374;8.006;2023-08-30T11:28:50;1.67;;;1.58;;
30519;SDS011;17300;50.374;8.006;2023-08-30T11:31:18;1.80;;;1.60;;
30519;SDS011;17300;50.374;8.006;2023-08-30T11:33:50;2.05;;;1.63;;
30519;SDS011;17300;50.374;8.006;2023-08-30T11:36:18;1.55;;;1.45;;
30519;SDS011;17300;50.374;8.006;2023-08-30T11:38:46;1.80;;;1.52;;
30519;SDS011;17300;50.374;8.006;2023-08-30T11:41:13;1.60;;;1.50;;
30519;SDS011;17300;50.374;8.006;2023-08-30T11:43:41;1.40;;;1.30;;
30519;SDS011;17300;50.374;8.006;2023-08-30T11:46:08;1.50;;;1.40;;
30519;SDS011;17300;50.374;8.006;2023-08-30T11:48:37;1.88;;;1.73;;
30519;SDS011;17300;50.374;8.006;2023-08-30T11:51:04;1.70;;;1.60;;
30519;SDS011;17300;50.374;8.006;2023-08-30T11:53:31;1.65;;;1.55;;
30519;SDS011;17300;50.374;8.006;2023-08-30T11:55:59;1.50;;;1.40;;
30519;SDS011;17300;50.374;8.006;2023-08-30T11:58:25;1.95;;;1.70;;
30519;SDS011;17300;50.374;8.006;2023-08-30T12:00:53;1.83;;;1.73;;
30519;SDS011;17300;50.374;8.006;2023-08-30T12:03:21;1.58;;;1.48;;
30519;SDS011;17300;50.374;8.006;2023-08-30T12:05:50;1.77;;;1.67;;
30519;SDS011;17300;50.374;8.006;2023-08-30T12:08:17;1.70;;;1.60;;
30519;SDS011;17300;50.374;8.006;2023-08-30T12:10:44;3.20;;;2.47;;
30519;SDS011;17300;50.374;8.006;2023-08-30T12:13:19;7.60;;;5.95;;
30519;SDS011;17300;50.374;8.006;2023-08-30T12:15:46;4.20;;;3.30;;
30519;SDS011;17300;50.374;8.006;2023-08-30T12:18:15;3.05;;;2.60;;
30519;SDS011;17300;50.374;8.006;2023-08-30T12:20:50;2.15;;;2.03;;
30519;SDS011;17300;50.374;8.006;2023-08-30T12:23:21;2.13;;;1.90;;
30519;SDS011;17300;50.374;8.006;2023-08-30T12:26:01;2.35;;;1.88;;
30519;SDS011;17300;50.374;8.006;2023-08-30T12:28:30;2.40;;;2.20;;
30519;SDS011;17300;50.374;8.006;2023-08-30T12:30:57;2.00;;;1.85;;
30519;SDS011;17300;50.374;8.006;2023-08-30T12:33:26;2.05;;;1.85;;
30519;SDS011;17300;50.374;8.006;2023-08-30T12:35:53;2.05;;;1.85;;
30519;SDS011;17300;50.374;8.006;2023-08-30T12:38:20;1.83;;;1.73;;
30519;SDS011;17300;50.374;8.006;2023-08-30T12:40:48;2.20;;;2.00;;
30519;SDS011;17300;50.374;8.006;2023-08-30T12:43:16;1.83;;;1.73;;
30519;SDS011;17300;50.374;8.006;2023-08-30T12:45:45;2.30;;;2.10;;
30519;SDS011;17300;50.374;8.006;2023-08-30T12:48:12;2.00;;;1.90;;
30519;SDS011;17300;50.374;8.006;2023-08-30T12:50:42;1.95;;;1.85;;
30519;SDS011;17300;50.374;8.006;2023-08-30T12:53:10;2.00;;;1.85;;
30519;SDS011;17300;50.374;8.006;2023-08-30T12:55:37;2.13;;;1.95;;
30519;SDS011;17300;50.374;8.006;2023-08-30T12:58:05;2.30;;;2.10;;
30519;SDS011;17300;50.374;8.006;2023-08-30T13:00:32;2.47;;;2.30;;
30519;SDS011;17300;50.374;8.006;2023-08-30T13:02:59;2.45;;;2.10;;
30519;SDS011;17300;50.374;8.006;2023-08-30T13:05:27;2.47;;;2.28;;
30519;SDS011;17300;50.374;8.006;2023-08-30T13:07:56;1.92;;;1.83;;
30519;SDS011;17300;50.374;8.006;2023-08-30T13:10:23;2.30;;;2.00;;
30519;SDS011;17300;50.374;8.006;2023-08-30T13:12:50;1.90;;;1.80;;
30519;SDS011;17300;50.374;8.006;2023-08-30T13:15:17;1.80;;;1.70;;
30519;SDS011;17300;50.374;8.006;2023-08-30T13:17:44;2.03;;;1.88;;
30519;SDS011;17300;50.374;8.006;2023-08-30T13:20:12;2.05;;;1.88;;
30519;SDS011;17300;50.374;8.006;2023-08-30T13:22:38;1.98;;;1.80;;
30519;SDS011;17300;50.374;8.006;2023-08-30T13:25:07;1.70;;;1.60;;
30519;SDS011;17300;50.374;8.006;2023-08-30T13:27:34;1.92;;;1.77;;
30519;SDS011;17300;50.374;8.006;2023-08-30T13:30:00;1.77;;;1.67;;
30519;SDS011;17300;50.374;8.006;2023-08-30T13:32:27;2.38;;;2.17;;
30519;SDS011;17300;50.374;8.006;2023-08-30T13:34:54;2.28;;;2.08;;
30519;SDS011;17300;50.374;8.006;2023-08-30T13:37:21;2.10;;;1.90;;
30519;SDS011;17300;50.374;8.006;2023-08-30T13:39:48;2.17;;;1.95;;
30519;SDS011;17300;50.374;8.006;2023-08-30T13:42:16;2.05;;;1.88;;
30519;SDS011;17300;50.374;8.006;2023-08-30T13:44:43;2.08;;;1.88;;
30519;SDS011;17300;50.374;8.006;2023-08-30T13:47:10;1.90;;;1.80;;
30519;SDS011;17300;50.374;8.006;2023-08-30T13:49:37;3.38;;;1.77;;
30519;SDS011;17300;50.374;8.006;2023-08-30T13:52:04;1.90;;;1.80;;
30519;SDS011;17300;50.374;8.006;2023-08-30T13:54:32;2.13;;;1.92;;
30519;SDS011;17300;50.374;8.006;2023-08-30T13:56:59;1.90;;;1.63;;
30519;SDS011;17300;50.374;8.006;2023-08-30T13:59:27;1.98;;;1.77;;
30519;SDS011;17300;50.374;8.006;2023-08-30T14:01:55;2.35;;;2.15;;
30519;SDS011;17300;50.374;8.006;2023-08-30T14:04:23;1.75;;;1.65;;
30519;SDS011;17300;50.374;8.006;2023-08-30T14:06:50;2.20;;;2.00;;
30519;SDS011;17300;50.374;8.006;2023-08-30T14:09:17;2.25;;;1.80;;
30519;SDS011;17300;50.374;8.006;2023-08-30T14:11:44;2.20;;;2.00;;
30519;SDS011;17300;50.374;8.006;2023-08-30T14:14:10;1.73;;;1.60;;
30519;SDS011;17300;50.374;8.006;2023-08-30T14:16:38;1.70;;;1.60;;
30519;SDS011;17300;50.374;8.006;2023-08-30T14:19:05;1.63;;;1.52;;
30519;SDS011;17300;50.374;8.006;2023-08-30T14:21:32;1.60;;;1.50;;
30519;SDS011;17300;50.374;8.006;2023-08-30T14:23:58;1.70;;;1.60;;
30519;SDS011;17300;50.374;8.006;2023-08-30T14:26:26;2.28;;;1.80;;
30519;SDS011;17300;50.374;8.006;2023-08-30T14:28:54;1.92;;;1.50;;
30519;SDS011;17300;50.374;8.006;2023-08-30T14:31:20;1.95;;;1.70;;
30519;SDS011;17300;50.374;8.006;2023-08-30T14:33:48;1.80;;;1.70;;
30519;SDS011;17300;50.374;8.006;2023-08-30T14:36:15;1.67;;;1.55;;
30519;SDS011;17300;50.374;8.006;2023-08-30T14:38:42;1.95;;;1.77;;
30519;SDS011;17300;50.374;8.006;2023-08-30T14:41:08;1.75;;;1.50;;
30519;SDS011;17300;50.374;8.006;2023-08-30T14:43:35;1.67;;;1.40;;
30519;SDS011;17300;50.374;8.006;2023-08-30T14:46:02;2.13;;;1.85;;
30519;SDS011;17300;50.374;8.006;2023-08-30T14:48:31;1.58;;;1.48;;
30519;SDS011;17300;50.374;8.006;2023-08-30T14:50:59;1.70;;;1.60;;